sensor_id;sensor_type;location;lat;lon;timestamp;P1;durP1;ratioP1;P2;durP2;ratioP2
75941;SDS011;64622;46.220;19.878;2023-08-21T00:00:42;19.37;;;14.00;;
75941;SDS011;64622;46.220;19.878;2023-08-21T00:03:08;20.10;;;13.70;;
75941;SDS011;64622;46.220;19.878;2023-08-21T00:05:35;18.55;;;13.93;;
75941;SDS011;64622;46.220;19.878;2023-08-21T00:08:01;20.77;;;13.93;;
75941;SDS011;64622;46.220;19.878;2023-08-21T00:10:29;17.33;;;13.30;;
75941;SDS011;64622;46.220;19.878;2023-08-21T00:12:57;19.87;;;13.40;;
75941;SDS011;64622;46.220;19.878;2023-08-21T00:15:23;17.42;;;14.30;;
75941;SDS011;64622;46.220;19.878;2023-08-21T00:17:50;20.40;;;14.15;;
75941;SDS011;64622;46.220;19.878;2023-08-21T00:20:17;18.77;;;14.23;;
75941;SDS011;64622;46.220;19.878;2023-08-21T00:22:43;20.02;;;14.50;;
75941;SDS011;64622;46.220;19.878;2023-08-21T00:25:10;19.98;;;14.15;;
75941;SDS011;64622;46.220;19.878;2023-08-21T00:27:36;22.80;;;14.32;;
75941;SDS011;64622;46.220;19.878;2023-08-21T00:30:03;21.23;;;14.45;;
75941;SDS011;64622;46.220;19.878;2023-08-21T00:32:30;20.30;;;15.17;;
75941;SDS011;64622;46.220;19.878;2023-08-21T00:34:57;19.87;;;14.07;;
75941;SDS011;64622;46.220;19.878;2023-08-21T00:37:24;19.12;;;14.38;;
75941;SDS011;64622;46.220;19.878;2023-08-21T00:39:50;19.67;;;13.95;;
75941;SDS011;64622;46.220;19.878;2023-08-21T00:42:17;22.62;;;15.27;;
75941;SDS011;64622;46.220;19.878;2023-08-21T00:44:44;17.73;;;14.30;;
75941;SDS011;64622;46.220;19.878;2023-08-21T00:47:10;18.60;;;14.55;;
75941;SDS011;64622;46.220;19.878;2023-08-21T00:49:36;21.55;;;14.77;;
75941;SDS011;64622;46.220;19.878;2023-08-21T00:52:06;18.52;;;14.20;;
75941;SDS011;64622;46.220;19.878;2023-08-21T00:54:35;21.20;;;15.23;;
75941;SDS011;64622;46.220;19.878;2023-08-21T00:57:02;20.93;;;14.97;;
75941;SDS011;64622;46.220;19.878;2023-08-21T00:59:29;20.00;;;15.20;;
75941;SDS011;64622;46.220;19.878;2023-08-21T01:01:55;19.42;;;15.32;;
75941;SDS011;64622;46.220;19.878;2023-08-21T01:04:22;20.67;;;15.38;;
75941;SDS011;64622;46.220;19.878;2023-08-21T01:06:49;19.33;;;15.27;;
75941;SDS011;64622;46.220;19.878;2023-08-21T01:15:06;20.58;;;15.02;;
75941;SDS011;64622;46.220;19.878;2023-08-21T01:17:34;19.25;;;15.30;;
75941;SDS011;64622;46.220;19.878;2023-08-21T01:20:05;19.50;;;15.30;;
75941;SDS011;64622;46.220;19.878;2023-08-21T01:22:39;19.90;;;15.57;;
75941;SDS011;64622;46.220;19.878;2023-08-21T01:25:07;19.75;;;15.07;;
75941;SDS011;64622;46.220;19.878;2023-08-21T01:27:38;21.42;;;15.20;;
75941;SDS011;64622;46.220;19.878;2023-08-21T01:30:11;19.83;;;14.90;;
75941;SDS011;64622;46.220;19.878;2023-08-21T01:35:43;19.13;;;15.07;;
75941;SDS011;64622;46.220;19.878;2023-08-21T01:38:11;23.27;;;15.65;;
75941;SDS011;64622;46.220;19.878;2023-08-21T01:40:38;19.58;;;14.98;;
75941;SDS011;64622;46.220;19.878;2023-08-21T01:43:06;21.20;;;15.73;;
75941;SDS011;64622;46.220;19.878;2023-08-21T01:45:33;22.20;;;15.73;;
75941;SDS011;64622;46.220;19.878;2023-08-21T01:47:59;22.23;;;16.13;;
75941;SDS011;64622;46.220;19.878;2023-08-21T01:50:27;21.85;;;15.85;;
75941;SDS011;64622;46.220;19.878;2023-08-21T01:52:54;21.90;;;15.57;;
75941;SDS011;64622;46.220;19.878;2023-08-21T01:55:20;21.45;;;16.15;;
75941;SDS011;64622;46.220;19.878;2023-08-21T01:57:49;24.80;;;15.98;;
75941;SDS011;64622;46.220;19.878;2023-08-21T02:00:15;20.63;;;15.33;;
75941;SDS011;64622;46.220;19.878;2023-08-21T02:02:43;20.92;;;16.85;;
75941;SDS011;64622;46.220;19.878;2023-08-21T02:05:10;20.12;;;16.00;;
75941;SDS011;64622;46.220;19.878;2023-08-21T02:07:38;20.95;;;16.12;;
75941;SDS011;64622;46.220;19.878;2023-08-21T02:10:05;20.67;;;16.70;;
75941;SDS011;64622;46.220;19.878;2023-08-21T02:12:33;22.07;;;16.77;;
75941;SDS011;64622;46.220;19.878;2023-08-21T02:15:00;24.35;;;17.23;;
75941;SDS011;64622;46.220;19.878;2023-08-21T02:17:27;22.30;;;17.20;;
75941;SDS011;64622;46.220;19.878;2023-08-21T02:19:53;22.23;;;17.67;;
75941;SDS011;64622;46.220;19.878;2023-08-21T02:22:20;23.45;;;17.60;;
75941;SDS011;64622;46.220;19.878;2023-08-21T02:24:47;22.43;;;17.13;;
75941;SDS011;64622;46.220;19.878;2023-08-21T02:27:14;22.02;;;17.67;;
75941;SDS011;64622;46.220;19.878;2023-08-21T02:29:40;25.98;;;18.35;;
75941;SDS011;64622;46.220;19.878;2023-08-21T02:32:06;23.87;;;17.35;;
75941;SDS011;64622;46.220;19.878;2023-08-21T02:34:33;23.00;;;17.35;;
75941;SDS011;64622;46.220;19.878;2023-08-21T02:37:00;28.47;;;17.20;;
75941;SDS011;64622;46.220;19.878;2023-08-21T02:39:27;21.33;;;16.85;;
75941;SDS011;64622;46.220;19.878;2023-08-21T02:41:54;22.35;;;17.23;;
75941;SDS011;64622;46.220;19.878;2023-08-21T02:44:21;21.27;;;17.23;;
75941;SDS011;64622;46.220;19.878;2023-08-21T02:46:47;21.60;;;17.58;;
75941;SDS011;64622;46.220;19.878;2023-08-21T02:49:14;21.07;;;17.30;;
75941;SDS011;64622;46.220;19.878;2023-08-21T02:51:40;22.17;;;17.42;;
75941;SDS011;64622;46.220;19.878;2023-08-21T02:54:07;24.17;;;17.40;;
75941;SDS011;64622;46.220;19.878;2023-08-21T02:56:34;25.55;;;17.10;;
75941;SDS011;64622;46.220;19.878;2023-08-21T02:59:00;24.58;;;18.87;;
75941;SDS011;64622;46.220;19.878;2023-08-21T03:01:27;29.23;;;18.47;;
75941;SDS011;64622;46.220;19.878;2023-08-21T03:03:54;22.00;;;17.80;;
75941;SDS011;64622;46.220;19.878;2023-08-21T03:06:20;24.67;;;18.33;;
75941;SDS011;64622;46.220;19.878;2023-08-21T03:08:47;24.12;;;18.75;;
75941;SDS011;64622;46.220;19.878;2023-08-21T03:11:13;25.73;;;18.48;;
75941;SDS011;64622;46.220;19.878;2023-08-21T03:13:40;24.53;;;18.17;;
75941;SDS011;64622;46.220;19.878;2023-08-21T03:16:07;22.45;;;18.00;;
75941;SDS011;64622;46.220;19.878;2023-08-21T03:18:41;24.63;;;18.40;;
75941;SDS011;64622;46.220;19.878;2023-08-21T03:21:21;26.23;;;19.58;;
75941;SDS011;64622;46.220;19.878;2023-08-21T03:23:54;24.02;;;19.00;;
75941;SDS011;64622;46.220;19.878;2023-08-21T03:26:22;22.47;;;18.67;;
75941;SDS011;64622;46.220;19.878;2023-08-21T03:28:50;27.60;;;18.60;;
75941;SDS011;64622;46.220;19.878;2023-08-21T03:31:17;26.15;;;19.50;;
75941;SDS011;64622;46.220;19.878;2023-08-21T03:33:44;25.77;;;19.02;;
75941;SDS011;64622;46.220;19.878;2023-08-21T03:36:12;25.70;;;19.17;;
75941;SDS011;64622;46.220;19.878;2023-08-21T03:38:38;27.93;;;19.97;;
75941;SDS011;64622;46.220;19.878;2023-08-21T03:41:06;25.80;;;19.37;;
75941;SDS011;64622;46.220;19.878;2023-08-21T03:43:34;25.17;;;19.08;;
75941;SDS011;64622;46.220;19.878;2023-08-21T03:46:00;25.77;;;19.50;;
75941;SDS011;64622;46.220;19.878;2023-08-21T03:48:27;24.40;;;19.23;;
75941;SDS011;64622;46.220;19.878;2023-08-21T03:50:54;25.70;;;18.70;;
75941;SDS011;64622;46.220;19.878;2023-08-21T03:53:20;28.50;;;19.45;;
75941;SDS011;64622;46.220;19.878;2023-08-21T03:55:47;28.80;;;20.23;;
75941;SDS011;64622;46.220;19.878;2023-08-21T03:58:13;28.98;;;18.98;;
75941;SDS011;64622;46.220;19.878;2023-08-21T04:00:41;26.02;;;19.10;;
75941;SDS011;64622;46.220;19.878;2023-08-21T04:03:08;27.60;;;19.30;;
75941;SDS011;64622;46.220;19.878;2023-08-21T04:05:34;29.17;;;20.52;;
75941;SDS011;64622;46.220;19.878;2023-08-21T04:08:01;25.52;;;19.30;;
75941;SDS011;64622;46.220;19.878;2023-08-21T04:10:27;26.30;;;19.08;;
75941;SDS011;64622;46.220;19.878;2023-08-21T04:12:55;26.50;;;19.80;;
75941;SDS011;64622;46.220;19.878;2023-08-21T04:15:22;25.77;;;19.40;;
75941;SDS011;64622;46.220;19.878;2023-08-21T04:17:49;26.48;;;20.15;;
75941;SDS011;64622;46.220;19.878;2023-08-21T04:20:16;25.42;;;20.02;;
75941;SDS011;64622;46.220;19.878;2023-08-21T04:22:42;25.52;;;19.33;;
75941;SDS011;64622;46.220;19.878;2023-08-21T04:25:09;25.52;;;19.42;;
75941;SDS011;64622;46.220;19.878;2023-08-21T04:27:36;26.70;;;19.37;;
75941;SDS011;64622;46.220;19.878;2023-08-21T04:30:03;25.95;;;18.15;;
75941;SDS011;64622;46.220;19.878;2023-08-21T04:32:31;23.38;;;17.95;;
75941;SDS011;64622;46.220;19.878;2023-08-21T04:34:58;23.27;;;17.45;;
75941;SDS011;64622;46.220;19.878;2023-08-21T04:37:25;24.77;;;17.60;;
75941;SDS011;64622;46.220;19.878;2023-08-21T04:39:53;22.83;;;17.27;;
75941;SDS011;64622;46.220;19.878;2023-08-21T04:42:20;23.95;;;17.08;;
75941;SDS011;64622;46.220;19.878;2023-08-21T04:44:47;21.98;;;16.17;;
75941;SDS011;64622;46.220;19.878;2023-08-21T04:47:18;21.05;;;15.68;;
75941;SDS011;64622;46.220;19.878;2023-08-21T04:49:50;21.55;;;16.52;;
75941;SDS011;64622;46.220;19.878;2023-08-21T04:52:17;22.13;;;16.87;;
75941;SDS011;64622;46.220;19.878;2023-08-21T04:54:45;21.02;;;16.02;;
75941;SDS011;64622;46.220;19.878;2023-08-21T04:57:12;22.70;;;17.02;;
75941;SDS011;64622;46.220;19.878;2023-08-21T04:59:40;22.80;;;16.77;;
75941;SDS011;64622;46.220;19.878;2023-08-21T05:02:06;22.02;;;16.20;;
75941;SDS011;64622;46.220;19.878;2023-08-21T05:04:35;26.37;;;16.57;;
75941;SDS011;64622;46.220;19.878;2023-08-21T05:07:04;19.87;;;15.10;;
75941;SDS011;64622;46.220;19.878;2023-08-21T05:09:31;23.60;;;15.65;;
75941;SDS011;64622;46.220;19.878;2023-08-21T05:11:58;21.05;;;15.00;;
75941;SDS011;64622;46.220;19.878;2023-08-21T05:14:25;19.50;;;15.45;;
75941;SDS011;64622;46.220;19.878;2023-08-21T05:16:51;20.43;;;15.33;;
75941;SDS011;64622;46.220;19.878;2023-08-21T05:19:18;22.33;;;14.50;;
75941;SDS011;64622;46.220;19.878;2023-08-21T05:21:45;17.98;;;14.87;;
75941;SDS011;64622;46.220;19.878;2023-08-21T05:24:12;20.25;;;15.27;;
75941;SDS011;64622;46.220;19.878;2023-08-21T05:26:39;20.12;;;14.98;;
75941;SDS011;64622;46.220;19.878;2023-08-21T05:29:06;21.83;;;14.77;;
75941;SDS011;64622;46.220;19.878;2023-08-21T05:31:32;20.73;;;15.30;;
75941;SDS011;64622;46.220;19.878;2023-08-21T05:33:59;18.33;;;14.43;;
75941;SDS011;64622;46.220;19.878;2023-08-21T05:36:26;18.35;;;14.02;;
75941;SDS011;64622;46.220;19.878;2023-08-21T05:38:53;18.87;;;13.90;;
75941;SDS011;64622;46.220;19.878;2023-08-21T05:41:19;17.77;;;14.23;;
75941;SDS011;64622;46.220;19.878;2023-08-21T05:43:47;20.33;;;13.70;;
75941;SDS011;64622;46.220;19.878;2023-08-21T05:46:15;16.45;;;14.13;;
75941;SDS011;64622;46.220;19.878;2023-08-21T05:48:42;21.23;;;13.18;;
75941;SDS011;64622;46.220;19.878;2023-08-21T05:51:08;19.23;;;14.27;;
75941;SDS011;64622;46.220;19.878;2023-08-21T05:53:35;17.57;;;13.20;;
75941;SDS011;64622;46.220;19.878;2023-08-21T05:56:02;19.58;;;13.55;;
75941;SDS011;64622;46.220;19.878;2023-08-21T05:58:30;16.90;;;13.30;;
75941;SDS011;64622;46.220;19.878;2023-08-21T06:00:58;17.33;;;12.80;;
75941;SDS011;64622;46.220;19.878;2023-08-21T06:03:25;17.67;;;12.52;;
75941;SDS011;64622;46.220;19.878;2023-08-21T06:05:53;15.17;;;11.97;;
75941;SDS011;64622;46.220;19.878;2023-08-21T06:08:19;16.60;;;12.40;;
75941;SDS011;64622;46.220;19.878;2023-08-21T06:10:50;19.23;;;12.60;;
75941;SDS011;64622;46.220;19.878;2023-08-21T06:13:17;18.62;;;12.10;;
75941;SDS011;64622;46.220;19.878;2023-08-21T06:15:44;15.75;;;10.98;;
75941;SDS011;64622;46.220;19.878;2023-08-21T06:18:14;16.80;;;11.50;;
75941;SDS011;64622;46.220;19.878;2023-08-21T06:20:42;16.90;;;11.35;;
75941;SDS011;64622;46.220;19.878;2023-08-21T06:23:12;16.50;;;11.70;;
75941;SDS011;64622;46.220;19.878;2023-08-21T06:25:39;14.38;;;10.85;;
75941;SDS011;64622;46.220;19.878;2023-08-21T06:28:05;15.68;;;11.23;;
75941;SDS011;64622;46.220;19.878;2023-08-21T06:30:32;15.77;;;11.23;;
75941;SDS011;64622;46.220;19.878;2023-08-21T06:32:59;15.93;;;10.48;;
75941;SDS011;64622;46.220;19.878;2023-08-21T06:35:25;15.70;;;10.07;;
75941;SDS011;64622;46.220;19.878;2023-08-21T06:37:53;17.37;;;9.95;;
75941;SDS011;64622;46.220;19.878;2023-08-21T06:40:21;13.23;;;10.18;;
75941;SDS011;64622;46.220;19.878;2023-08-21T06:42:47;14.87;;;10.40;;
75941;SDS011;64622;46.220;19.878;2023-08-21T06:45:18;19.98;;;9.80;;
75941;SDS011;64622;46.220;19.878;2023-08-21T06:47:45;15.18;;;10.07;;
75941;SDS011;64622;46.220;19.878;2023-08-21T06:50:11;14.68;;;10.60;;
75941;SDS011;64622;46.220;19.878;2023-08-21T06:52:38;14.63;;;10.18;;
75941;SDS011;64622;46.220;19.878;2023-08-21T06:55:05;15.63;;;10.30;;
75941;SDS011;64622;46.220;19.878;2023-08-21T06:57:33;14.73;;;10.40;;
75941;SDS011;64622;46.220;19.878;2023-08-21T06:59:59;13.60;;;10.30;;
75941;SDS011;64622;46.220;19.878;2023-08-21T07:02:26;14.82;;;9.73;;
75941;SDS011;64622;46.220;19.878;2023-08-21T07:04:53;16.37;;;10.38;;
75941;SDS011;64622;46.220;19.878;2023-08-21T07:07:19;18.10;;;10.80;;
75941;SDS011;64622;46.220;19.878;2023-08-21T07:09:46;13.57;;;10.13;;
75941;SDS011;64622;46.220;19.878;2023-08-21T07:12:12;19.55;;;11.40;;
75941;SDS011;64622;46.220;19.878;2023-08-21T07:14:39;13.38;;;10.05;;
75941;SDS011;64622;46.220;19.878;2023-08-21T07:17:05;16.58;;;10.43;;
75941;SDS011;64622;46.220;19.878;2023-08-21T07:19:32;16.70;;;10.00;;
75941;SDS011;64622;46.220;19.878;2023-08-21T07:21:59;14.77;;;10.30;;
75941;SDS011;64622;46.220;19.878;2023-08-21T07:24:25;12.43;;;9.85;;
75941;SDS011;64622;46.220;19.878;2023-08-21T07:26:52;15.13;;;10.00;;
75941;SDS011;64622;46.220;19.878;2023-08-21T07:29:18;14.55;;;9.93;;
75941;SDS011;64622;46.220;19.878;2023-08-21T07:31:45;14.97;;;10.03;;
75941;SDS011;64622;46.220;19.878;2023-08-21T07:34:11;14.30;;;10.25;;
75941;SDS011;64622;46.220;19.878;2023-08-21T07:36:38;14.55;;;9.90;;
75941;SDS011;64622;46.220;19.878;2023-08-21T07:39:05;15.43;;;10.02;;
75941;SDS011;64622;46.220;19.878;2023-08-21T07:41:31;14.98;;;10.30;;
75941;SDS011;64622;46.220;19.878;2023-08-21T07:43:58;13.80;;;10.10;;
75941;SDS011;64622;46.220;19.878;2023-08-21T07:46:25;13.85;;;10.05;;
75941;SDS011;64622;46.220;19.878;2023-08-21T07:48:52;15.52;;;10.60;;
75941;SDS011;64622;46.220;19.878;2023-08-21T07:51:19;14.80;;;10.27;;
75941;SDS011;64622;46.220;19.878;2023-08-21T07:53:45;14.30;;;10.07;;
75941;SDS011;64622;46.220;19.878;2023-08-21T07:56:12;13.40;;;9.63;;
75941;SDS011;64622;46.220;19.878;2023-08-21T07:58:38;13.20;;;10.27;;
75941;SDS011;64622;46.220;19.878;2023-08-21T08:01:05;13.82;;;10.25;;
75941;SDS011;64622;46.220;19.878;2023-08-21T08:03:32;12.43;;;9.43;;
75941;SDS011;64622;46.220;19.878;2023-08-21T08:05:59;16.30;;;10.00;;
75941;SDS011;64622;46.220;19.878;2023-08-21T08:08:25;14.40;;;9.93;;
75941;SDS011;64622;46.220;19.878;2023-08-21T08:10:52;12.13;;;9.52;;
75941;SDS011;64622;46.220;19.878;2023-08-21T08:13:19;13.45;;;9.20;;
75941;SDS011;64622;46.220;19.878;2023-08-21T08:15:45;13.10;;;8.52;;
75941;SDS011;64622;46.220;19.878;2023-08-21T08:18:12;13.02;;;9.32;;
75941;SDS011;64622;46.220;19.878;2023-08-21T08:20:39;13.10;;;9.00;;
75941;SDS011;64622;46.220;19.878;2023-08-21T08:23:06;15.70;;;8.35;;
75941;SDS011;64622;46.220;19.878;2023-08-21T08:25:33;11.15;;;8.20;;
75941;SDS011;64622;46.220;19.878;2023-08-21T08:27:59;17.30;;;8.95;;
75941;SDS011;64622;46.220;19.878;2023-08-21T08:30:26;14.10;;;8.95;;
75941;SDS011;64622;46.220;19.878;2023-08-21T08:32:53;13.13;;;9.03;;
75941;SDS011;64622;46.220;19.878;2023-08-21T08:35:20;12.52;;;8.63;;
75941;SDS011;64622;46.220;19.878;2023-08-21T08:37:46;12.65;;;8.55;;
75941;SDS011;64622;46.220;19.878;2023-08-21T08:40:13;13.57;;;9.05;;
75941;SDS011;64622;46.220;19.878;2023-08-21T08:42:40;13.05;;;8.88;;
75941;SDS011;64622;46.220;19.878;2023-08-21T08:45:07;16.13;;;8.50;;
75941;SDS011;64622;46.220;19.878;2023-08-21T08:47:34;13.82;;;8.32;;
75941;SDS011;64622;46.220;19.878;2023-08-21T08:50:05;12.80;;;8.55;;
75941;SDS011;64622;46.220;19.878;2023-08-21T08:52:34;12.02;;;8.27;;
75941;SDS011;64622;46.220;19.878;2023-08-21T08:55:03;12.57;;;8.07;;
75941;SDS011;64622;46.220;19.878;2023-08-21T08:57:33;10.93;;;7.60;;
75941;SDS011;64622;46.220;19.878;2023-08-21T09:00:00;13.00;;;7.78;;
75941;SDS011;64622;46.220;19.878;2023-08-21T09:02:29;11.95;;;7.85;;
75941;SDS011;64622;46.220;19.878;2023-08-21T09:04:56;12.37;;;8.43;;
75941;SDS011;64622;46.220;19.878;2023-08-21T09:07:23;14.40;;;8.77;;
75941;SDS011;64622;46.220;19.878;2023-08-21T09:09:50;12.37;;;7.93;;
75941;SDS011;64622;46.220;19.878;2023-08-21T09:12:18;12.82;;;8.27;;
75941;SDS011;64622;46.220;19.878;2023-08-21T09:14:45;13.57;;;8.40;;
75941;SDS011;64622;46.220;19.878;2023-08-21T09:17:13;14.57;;;7.70;;
75941;SDS011;64622;46.220;19.878;2023-08-21T09:19:40;11.45;;;7.37;;
75941;SDS011;64622;46.220;19.878;2023-08-21T09:22:11;11.23;;;7.13;;
75941;SDS011;64622;46.220;19.878;2023-08-21T09:24:39;10.52;;;7.30;;
75941;SDS011;64622;46.220;19.878;2023-08-21T09:27:13;12.27;;;7.50;;
75941;SDS011;64622;46.220;19.878;2023-08-21T09:29:42;10.15;;;6.97;;
75941;SDS011;64622;46.220;19.878;2023-08-21T09:32:09;11.18;;;7.32;;
75941;SDS011;64622;46.220;19.878;2023-08-21T09:34:36;11.00;;;7.67;;
75941;SDS011;64622;46.220;19.878;2023-08-21T09:37:04;13.82;;;7.30;;
75941;SDS011;64622;46.220;19.878;2023-08-21T09:39:36;10.50;;;6.50;;
75941;SDS011;64622;46.220;19.878;2023-08-21T09:42:07;10.40;;;6.60;;
75941;SDS011;64622;46.220;19.878;2023-08-21T09:44:37;10.75;;;6.50;;
75941;SDS011;64622;46.220;19.878;2023-08-21T09:47:09;11.53;;;6.50;;
75941;SDS011;64622;46.220;19.878;2023-08-21T09:49:37;11.55;;;6.87;;
75941;SDS011;64622;46.220;19.878;2023-08-21T09:52:06;11.10;;;7.25;;
75941;SDS011;64622;46.220;19.878;2023-08-21T09:54:37;13.15;;;7.10;;
75941;SDS011;64622;46.220;19.878;2023-08-21T09:57:04;12.30;;;7.12;;
75941;SDS011;64622;46.220;19.878;2023-08-21T09:59:31;18.80;;;7.40;;
75941;SDS011;64622;46.220;19.878;2023-08-21T10:01:59;10.77;;;6.90;;
75941;SDS011;64622;46.220;19.878;2023-08-21T10:04:27;10.63;;;6.70;;
75941;SDS011;64622;46.220;19.878;2023-08-21T10:06:58;10.77;;;6.37;;
75941;SDS011;64622;46.220;19.878;2023-08-21T10:09:26;12.20;;;6.40;;
75941;SDS011;64622;46.220;19.878;2023-08-21T10:11:55;9.70;;;6.43;;
75941;SDS011;64622;46.220;19.878;2023-08-21T10:14:22;11.88;;;6.35;;
75941;SDS011;64622;46.220;19.878;2023-08-21T10:16:52;12.07;;;6.28;;
75941;SDS011;64622;46.220;19.878;2023-08-21T10:19:20;12.95;;;6.55;;
75941;SDS011;64622;46.220;19.878;2023-08-21T10:21:47;11.00;;;6.60;;
75941;SDS011;64622;46.220;19.878;2023-08-21T10:24:28;14.83;;;6.50;;
75941;SDS011;64622;46.220;19.878;2023-08-21T10:27:06;12.88;;;7.03;;
75941;SDS011;64622;46.220;19.878;2023-08-21T10:29:33;9.70;;;6.75;;
75941;SDS011;64622;46.220;19.878;2023-08-21T10:32:03;10.48;;;6.85;;
75941;SDS011;64622;46.220;19.878;2023-08-21T10:34:32;12.50;;;6.75;;
75941;SDS011;64622;46.220;19.878;2023-08-21T10:37:09;10.03;;;6.63;;
75941;SDS011;64622;46.220;19.878;2023-08-21T10:39:39;11.32;;;6.30;;
75941;SDS011;64622;46.220;19.878;2023-08-21T10:42:19;12.25;;;6.72;;
75941;SDS011;64622;46.220;19.878;2023-08-21T10:44:46;11.50;;;6.65;;
75941;SDS011;64622;46.220;19.878;2023-08-21T10:49:54;9.93;;;6.10;;
75941;SDS011;64622;46.220;19.878;2023-08-21T10:52:38;10.90;;;6.50;;
75941;SDS011;64622;46.220;19.878;2023-08-21T10:55:12;9.75;;;6.50;;
75941;SDS011;64622;46.220;19.878;2023-08-21T10:57:39;9.35;;;6.35;;
75941;SDS011;64622;46.220;19.878;2023-08-21T11:00:09;10.70;;;7.22;;
75941;SDS011;64622;46.220;19.878;2023-08-21T11:02:38;10.97;;;5.93;;
75941;SDS011;64622;46.220;19.878;2023-08-21T11:05:06;10.93;;;6.62;;
75941;SDS011;64622;46.220;19.878;2023-08-21T11:07:37;11.60;;;6.57;;
75941;SDS011;64622;46.220;19.878;2023-08-21T11:10:06;11.98;;;6.60;;
75941;SDS011;64622;46.220;19.878;2023-08-21T11:12:35;12.93;;;6.55;;
75941;SDS011;64622;46.220;19.878;2023-08-21T11:15:02;10.67;;;6.67;;
75941;SDS011;64622;46.220;19.878;2023-08-21T11:17:31;12.27;;;6.80;;
75941;SDS011;64622;46.220;19.878;2023-08-21T11:20:00;10.07;;;6.15;;
75941;SDS011;64622;46.220;19.878;2023-08-21T11:22:28;10.05;;;6.18;;
75941;SDS011;64622;46.220;19.878;2023-08-21T11:24:56;11.70;;;6.47;;
75941;SDS011;64622;46.220;19.878;2023-08-21T11:27:23;13.53;;;6.50;;
75941;SDS011;64622;46.220;19.878;2023-08-21T11:29:51;10.05;;;6.55;;
75941;SDS011;64622;46.220;19.878;2023-08-21T11:32:19;9.18;;;6.50;;
75941;SDS011;64622;46.220;19.878;2023-08-21T11:34:51;11.35;;;6.70;;
75941;SDS011;64622;46.220;19.878;2023-08-21T11:37:21;9.80;;;6.60;;
75941;SDS011;64622;46.220;19.878;2023-08-21T11:42:16;10.18;;;6.32;;
75941;SDS011;64622;46.220;19.878;2023-08-21T11:44:44;10.07;;;6.82;;
75941;SDS011;64622;46.220;19.878;2023-08-21T11:47:12;11.02;;;6.80;;
75941;SDS011;64622;46.220;19.878;2023-08-21T11:49:40;11.07;;;6.47;;
75941;SDS011;64622;46.220;19.878;2023-08-21T11:52:11;11.67;;;6.83;;
75941;SDS011;64622;46.220;19.878;2023-08-21T11:54:38;10.55;;;6.45;;
75941;SDS011;64622;46.220;19.878;2023-08-21T11:57:13;10.55;;;6.72;;
75941;SDS011;64622;46.220;19.878;2023-08-21T11:59:41;10.80;;;6.85;;
75941;SDS011;64622;46.220;19.878;2023-08-21T12:02:08;12.90;;;6.72;;
75941;SDS011;64622;46.220;19.878;2023-08-21T12:04:45;11.80;;;6.57;;
75941;SDS011;64622;46.220;19.878;2023-08-21T12:07:17;11.98;;;6.10;;
75941;SDS011;64622;46.220;19.878;2023-08-21T12:09:47;13.32;;;6.95;;
75941;SDS011;64622;46.220;19.878;2023-08-21T12:12:17;12.23;;;6.60;;
75941;SDS011;64622;46.220;19.878;2023-08-21T12:14:44;10.32;;;6.60;;
75941;SDS011;64622;46.220;19.878;2023-08-21T12:17:10;11.57;;;6.37;;
75941;SDS011;64622;46.220;19.878;2023-08-21T12:19:37;10.98;;;7.20;;
75941;SDS011;64622;46.220;19.878;2023-08-21T12:22:04;11.15;;;6.82;;
75941;SDS011;64622;46.220;19.878;2023-08-21T12:24:30;10.15;;;6.53;;
75941;SDS011;64622;46.220;19.878;2023-08-21T12:26:57;10.25;;;6.78;;
75941;SDS011;64622;46.220;19.878;2023-08-21T12:29:24;11.13;;;6.83;;
75941;SDS011;64622;46.220;19.878;2023-08-21T12:31:50;11.68;;;7.12;;
75941;SDS011;64622;46.220;19.878;2023-08-21T12:34:17;10.02;;;6.78;;
75941;SDS011;64622;46.220;19.878;2023-08-21T12:36:43;11.38;;;6.70;;
75941;SDS011;64622;46.220;19.878;2023-08-21T12:39:10;10.80;;;6.30;;
75941;SDS011;64622;46.220;19.878;2023-08-21T12:41:37;9.73;;;6.20;;
75941;SDS011;64622;46.220;19.878;2023-08-21T12:44:03;12.48;;;6.28;;
75941;SDS011;64622;46.220;19.878;2023-08-21T12:46:30;10.60;;;6.57;;
75941;SDS011;64622;46.220;19.878;2023-08-21T12:48:56;10.20;;;6.30;;
75941;SDS011;64622;46.220;19.878;2023-08-21T12:51:23;9.10;;;6.53;;
75941;SDS011;64622;46.220;19.878;2023-08-21T12:53:50;10.23;;;6.33;;
75941;SDS011;64622;46.220;19.878;2023-08-21T12:56:16;9.52;;;6.28;;
75941;SDS011;64622;46.220;19.878;2023-08-21T12:58:43;12.05;;;6.65;;
75941;SDS011;64622;46.220;19.878;2023-08-21T13:01:10;8.90;;;5.53;;
75941;SDS011;64622;46.220;19.878;2023-08-21T13:03:37;9.30;;;6.35;;
75941;SDS011;64622;46.220;19.878;2023-08-21T13:06:03;12.27;;;6.13;;
75941;SDS011;64622;46.220;19.878;2023-08-21T13:08:30;9.50;;;6.00;;
75941;SDS011;64622;46.220;19.878;2023-08-21T13:10:57;9.30;;;6.20;;
75941;SDS011;64622;46.220;19.878;2023-08-21T13:13:23;9.32;;;5.70;;
75941;SDS011;64622;46.220;19.878;2023-08-21T13:15:50;11.70;;;6.05;;
75941;SDS011;64622;46.220;19.878;2023-08-21T13:18:17;8.50;;;6.00;;
75941;SDS011;64622;46.220;19.878;2023-08-21T13:20:43;9.50;;;6.40;;
75941;SDS011;64622;46.220;19.878;2023-08-21T13:23:10;10.13;;;6.10;;
75941;SDS011;64622;46.220;19.878;2023-08-21T13:25:37;10.40;;;6.15;;
75941;SDS011;64622;46.220;19.878;2023-08-21T13:28:03;11.93;;;5.82;;
75941;SDS011;64622;46.220;19.878;2023-08-21T13:30:30;9.50;;;5.93;;
75941;SDS011;64622;46.220;19.878;2023-08-21T13:32:58;9.32;;;5.97;;
75941;SDS011;64622;46.220;19.878;2023-08-21T13:35:25;13.05;;;6.10;;
75941;SDS011;64622;46.220;19.878;2023-08-21T13:37:52;9.85;;;6.00;;
75941;SDS011;64622;46.220;19.878;2023-08-21T13:40:19;9.73;;;5.97;;
75941;SDS011;64622;46.220;19.878;2023-08-21T13:42:47;9.40;;;6.07;;
75941;SDS011;64622;46.220;19.878;2023-08-21T13:45:14;10.38;;;6.28;;
75941;SDS011;64622;46.220;19.878;2023-08-21T13:47:46;10.18;;;6.45;;
75941;SDS011;64622;46.220;19.878;2023-08-21T13:50:18;9.85;;;6.30;;
75941;SDS011;64622;46.220;19.878;2023-08-21T13:52:46;11.30;;;5.78;;
75941;SDS011;64622;46.220;19.878;2023-08-21T13:55:13;10.07;;;6.10;;
75941;SDS011;64622;46.220;19.878;2023-08-21T13:57:40;10.63;;;6.60;;
75941;SDS011;64622;46.220;19.878;2023-08-21T14:00:08;10.98;;;6.70;;
75941;SDS011;64622;46.220;19.878;2023-08-21T14:02:38;10.75;;;6.65;;
75941;SDS011;64622;46.220;19.878;2023-08-21T14:05:06;10.98;;;6.80;;
75941;SDS011;64622;46.220;19.878;2023-08-21T14:07:34;12.30;;;6.20;;
75941;SDS011;64622;46.220;19.878;2023-08-21T14:10:01;10.57;;;6.20;;
75941;SDS011;64622;46.220;19.878;2023-08-21T14:12:29;12.55;;;6.53;;
75941;SDS011;64622;46.220;19.878;2023-08-21T14:14:57;11.90;;;6.45;;
75941;SDS011;64622;46.220;19.878;2023-08-21T14:17:25;12.23;;;6.60;;
75941;SDS011;64622;46.220;19.878;2023-08-21T14:19:52;11.23;;;6.43;;
75941;SDS011;64622;46.220;19.878;2023-08-21T14:22:19;13.15;;;6.60;;
75941;SDS011;64622;46.220;19.878;2023-08-21T14:24:46;10.85;;;6.50;;
75941;SDS011;64622;46.220;19.878;2023-08-21T14:27:12;9.10;;;6.15;;
75941;SDS011;64622;46.220;19.878;2023-08-21T14:29:39;11.95;;;6.50;;
75941;SDS011;64622;46.220;19.878;2023-08-21T14:32:05;11.53;;;6.30;;